Time;durP1;ratioP1;P1;durP2;ratioP2;P2;SDS_P1;SDS_P2;PMS_P1;PMS_P2;Temp;Humidity;BMP_temperature;BMP_pressure;BME280_temperature;BME280_humidity;BME280_pressure;Samples;Min_cycle;Max_cycle;Signal;HPM_P1;HPM_P2
2022/01/23 00:02:29;;;;;;;;;;;;;;;23.63;6.04;101182.78;4975782;28;20035;-75
2022/01/23 00:04:55;;;;;;;1.40;1.30;;;;;;;23.45;5.95;101180.38;4975013;28;20328;-76
2022/01/23 00:07:21;;;;;;;1.50;1.40;;;;;;;23.34;6.00;101168.53;4974972;28;20478;-76
2022/01/23 00:09:46;;;;;;;1.40;1.30;;;;;;;23.40;6.19;101177.59;4975004;28;20069;-76
2022/01/23 00:12:16;;;;;;;1.55;1.45;;;;;;;23.37;6.15;101184.41;4974934;28;20031;-76
2022/01/23 00:17:27;;;;;;;1.50;1.40;;;;;;;23.37;6.29;101189.84;4974990;28;20038;-76
2022/01/23 00:19:55;;;;;;;1.40;1.30;;;;;;;23.36;6.06;101196.38;4974699;28;20046;-76
2022/01/23 00:22:25;;;;;;;1.35;1.25;;;;;;;23.35;6.13;101202.94;5023884;28;20034;-76
2022/01/23 00:30:27;;;;;;;1.00;1.00;;;;;;;23.37;5.97;101202.66;5035532;28;20043;-76
2022/01/23 00:32:55;;;;;;;1.40;1.30;;;;;;;23.31;6.12;101203.69;5035517;28;20468;-76
2022/01/23 00:35:20;;;;;;;1.20;1.10;;;;;;;23.29;5.93;101197.66;5035487;28;20045;-77
2022/01/23 00:37:46;;;;;;;1.25;1.15;;;;;;;23.29;6.08;101190.28;5035710;28;20032;-76
2022/01/23 00:40:11;;;;;;;1.40;1.30;;;;;;;23.32;5.81;101192.53;5035534;28;20021;-76
2022/01/23 00:42:37;;;;;;;1.33;1.23;;;;;;;23.34;6.02;101184.09;5035514;28;20075;-75
2022/01/23 00:45:27;;;;;;;1.30;1.20;;;;;;;23.35;5.93;101181.09;5035333;28;20026;-76
2022/01/23 00:47:55;;;;;;;1.40;1.30;;;;;;;23.35;5.88;101189.28;5034632;28;20061;-76
2022/01/23 00:50:20;;;;;;;1.10;1.10;;;;;;;23.34;5.64;101201.28;5035058;28;20026;-76
2022/01/23 00:52:46;;;;;;;1.30;1.20;;;;;;;23.35;6.01;101208.38;5034919;28;20044;-76
2022/01/23 00:55:11;;;;;;;1.15;1.05;;;;;;;23.38;5.71;101207.84;5035300;28;20029;-75
2022/01/23 00:57:37;;;;;;;1.30;1.20;;;;;;;23.37;5.76;101208.94;5035202;28;20026;-76
2022/01/23 01:00:04;;;;;;;1.08;0.95;;;;;;;23.31;5.92;101207.22;5035233;28;20342;-76
2022/01/23 01:02:29;;;;;;;1.30;1.20;;;;;;;23.35;5.73;101202.94;5017272;28;20029;-75
2022/01/23 01:04:55;;;;;;;1.30;1.20;;;;;;;23.34;5.75;101201.28;5034989;28;20056;-76
2022/01/23 01:07:20;;;;;;;1.10;1.00;;;;;;;23.36;5.83;101199.09;5035319;28;20469;-76
2022/01/23 01:09:49;;;;;;;1.35;1.25;;;;;;;23.36;5.68;101195.56;5034970;28;20045;-76
2022/01/23 01:12:28;;;;;;;1.20;1.10;;;;;;;23.31;5.94;101188.13;5034966;28;20022;-75
2022/01/23 01:15:22;;;;;;;1.20;1.10;;;;;;;23.36;6.07;101207.28;5034759;28;20033;-75
2022/01/23 01:31:29;;;;;;;0.87;0.87;;;;;;;23.39;5.86;101214.97;4973620;28;20082;-76
2022/01/23 01:34:09;;;;;;;1.30;1.20;;;;;;;23.34;6.06;101217.63;4973510;28;20030;-76
2022/01/23 01:36:45;;;;;;;1.30;1.20;;;;;;;23.36;5.96;101203.75;4973543;28;20043;-76
2022/01/23 01:39:11;;;;;;;0.90;0.90;;;;;;;23.37;6.01;101208.09;4973464;28;20118;-76
2022/01/23 01:41:38;;;;;;;0.88;0.88;;;;;;;23.33;6.28;101207.78;4973555;28;20038;-76
2022/01/23 01:44:03;;;;;;;1.10;1.02;;;;;;;23.33;6.02;101196.88;4973041;28;20508;-77
2022/01/23 01:46:29;;;;;;;0.90;0.90;;;;;;;23.33;6.00;101199.59;4973404;28;20031;-76
2022/01/23 01:48:54;;;;;;;1.20;1.10;;;;;;;23.31;6.17;101179.94;4991470;28;20177;-76
2022/01/23 01:51:20;;;;;;;1.10;1.00;;;;;;;23.34;6.16;101189.53;4976333;28;20045;-76
2022/01/23 01:53:52;;;;;;;0.95;0.90;;;;;;;23.33;6.33;101215.16;4992440;28;20504;-76
2022/01/23 01:56:18;;;;;;;1.30;1.20;;;;;;;23.35;6.16;101202.94;4992409;28;20034;-77
2022/01/23 02:02:41;;;;;;;1.10;1.00;;;;;;;23.34;6.13;101193.09;5014639;28;20029;-77
2022/01/23 02:09:22;;;;;;;1.00;0.90;;;;;;;23.35;6.40;101204.81;5013942;28;20036;-76
2022/01/23 02:17:15;;;;;;;1.05;0.95;;;;;;;23.35;6.14;101202.94;5013812;28;20030;-75
2022/01/23 02:52:16;;;;;;;1.13;1.02;;;;;;;23.37;6.55;101167.19;5039932;28;20091;-76
2022/01/23 02:54:55;;;;;;;1.15;1.05;;;;;;;23.33;6.62;101161.44;5040047;28;20033;-76
2022/01/23 02:57:33;;;;;;;0.90;0.90;;;;;;;23.34;6.45;101163.09;5040007;28;20033;-77
2022/01/23 02:59:58;;;;;;;0.90;0.90;;;;;;;23.35;6.47;101156.56;5039900;28;20078;-76
2022/01/23 03:02:33;;;;;;;0.82;0.82;;;;;;;23.32;6.67;101151.63;5040900;28;20029;-77
2022/01/23 03:05:01;;;;;;;0.70;0.70;;;;;;;23.32;6.71;101154.34;5040087;28;20041;-76
2022/01/23 03:08:04;;;;;;;1.05;0.95;;;;;;;23.31;6.82;101158.13;5040895;28;20071;-76
2022/01/23 03:10:23;;;;;;;0.88;0.88;;;;;;;23.35;6.78;101159.28;5037042;28;20038;-76
2022/01/23 03:26:24;;;;;;;0.98;0.98;;;;;;;23.36;6.78;101176.47;4927082;29;20046;-76
2022/01/23 03:33:44;;;;;;;1.10;1.00;;;;;;;23.32;6.82;101181.63;4940143;29;20035;-76
2022/01/23 03:36:09;;;;;;;1.13;1.02;;;;;;;23.32;6.87;101176.16;4940060;29;20522;-77
2022/01/23 03:38:35;;;;;;;0.80;0.80;;;;;;;23.36;6.94;101188.19;4939949;29;20046;-75
2022/01/23 03:41:00;;;;;;;0.90;0.90;;;;;;;23.33;7.02;101183.25;4939860;29;20036;-76
2022/01/23 03:43:29;;;;;;;1.10;1.00;;;;;;;23.35;6.92;101181.09;4939781;29;20320;-75
2022/01/23 03:46:20;;;;;;;0.70;0.70;;;;;;;23.32;7.25;101178.03;4940609;29;20039;-75
2022/01/23 03:51:08;;;;;;;1.13;1.02;;;;;;;23.38;7.18;101196.94;4940090;29;20042;-76
2022/01/23 03:53:33;;;;;;;1.08;1.00;;;;;;;23.36;6.85;101192.84;4939898;29;20466;-76
2022/01/23 03:55:58;;;;;;;0.98;0.98;;;;;;;23.35;7.05;101181.09;4924716;28;20028;-74
2022/01/23 03:58:24;;;;;;;0.75;0.75;;;;;;;23.35;7.05;101183.84;5017742;28;20036;-76
2022/01/23 04:00:49;;;;;;;0.88;0.88;;;;;;;23.35;7.15;101192.03;5016511;28;20026;-77
2022/01/23 04:03:18;;;;;;;0.90;0.90;;;;;;;23.36;7.37;101188.19;5016886;28;20080;-76
2022/01/23 04:05:43;;;;;;;0.90;0.90;;;;;;;23.31;7.33;101162.78;5016564;28;20429;-77
2022/01/23 04:08:09;;;;;;;0.90;0.90;;;;;;;23.35;7.19;101169.34;5016232;28;20025;-77
2022/01/23 04:10:34;;;;;;;0.90;0.90;;;;;;;23.36;7.39;101177.28;5016692;28;20026;-76
2022/01/23 04:13:17;;;;;;;0.70;0.70;;;;;;;23.33;7.40;101185.97;5016547;28;20487;-76
2022/01/23 04:21:14;;;;;;;1.00;0.90;;;;;;;23.34;7.25;101197.72;5016211;28;20026;-76
2022/01/23 05:01:05;;;;;;;0.95;0.93;;;;;;;23.38;7.80;101183.31;5015466;28;20045;-77
2022/01/23 05:06:24;;;;;;;0.85;0.85;;;;;;;23.35;7.74;101172.94;5015670;28;20088;-76
2022/01/23 05:08:50;;;;;;;0.70;0.70;;;;;;;23.33;7.84;101169.59;4998512;28;20037;-76
2022/01/23 05:11:16;;;;;;;0.80;0.80;;;;;;;23.33;7.98;101171.53;5015189;28;20022;-77
2022/01/23 05:13:42;;;;;;;0.80;0.80;;;;;;;23.31;8.00;101169.03;5014955;28;20030;-76
2022/01/23 05:16:08;;;;;;;0.73;0.73;;;;;;;23.28;8.06;101169.53;4997820;28;20080;-76
2022/01/23 05:18:35;;;;;;;0.77;0.77;;;;;;;23.34;7.83;101168.53;4997740;28;20028;-75
2022/01/23 05:21:14;;;;;;;0.80;0.80;;;;;;;23.31;7.99;101166.31;5014763;28;20464;-75
2022/01/23 05:23:40;;;;;;;0.70;0.70;;;;;;;23.35;8.00;101167.47;5015691;28;20033;-76
2022/01/23 05:26:05;;;;;;;0.70;0.70;;;;;;;23.33;8.13;101166.06;5014758;28;20021;-76
2022/01/23 05:28:31;;;;;;;0.80;0.80;;;;;;;23.33;7.99;101166.88;5015013;28;20022;-76
2022/01/23 05:30:56;;;;;;;0.90;0.90;;;;;;;23.34;8.25;101168.53;5014826;28;20468;-77
2022/01/23 05:33:22;;;;;;;0.73;0.73;;;;;;;23.34;8.11;101173.19;5014981;28;20030;-76
2022/01/23 05:35:47;;;;;;;0.85;0.85;;;;;;;23.32;8.04;101165.25;4997724;28;20095;-76
2022/01/23 05:38:12;;;;;;;0.73;0.73;;;;;;;23.32;8.26;101159.78;5014579;28;20026;-77
2022/01/23 05:40:39;;;;;;;0.90;0.90;;;;;;;23.32;8.49;101158.94;5014517;28;20030;-76
2022/01/23 05:43:05;;;;;;;0.80;0.80;;;;;;;23.23;8.50;101145.78;5014885;28;20032;-76
2022/01/23 05:45:30;;;;;;;0.80;0.80;;;;;;;23.37;8.38;101161.75;5014898;28;20104;-76
2022/01/23 05:47:56;;;;;;;0.60;0.60;;;;;;;23.36;8.26;101166.38;5025258;28;20049;-76
2022/01/23 05:50:21;;;;;;;0.93;0.90;;;;;;;23.31;8.43;101152.69;5034294;28;20391;-75
2022/01/23 05:52:46;;;;;;;0.70;0.70;;;;;;;23.32;8.37;101158.94;5037117;28;20040;-77
2022/01/23 05:55:14;;;;;;;0.77;0.77;;;;;;;23.34;8.39;101162.28;5037442;28;20032;-76
2022/01/23 05:57:40;;;;;;;0.73;0.73;;;;;;;23.34;8.65;101165.00;5037409;28;20090;-76
2022/01/23 06:00:06;;;;;;;0.70;0.70;;;;;;;23.34;8.42;101160.34;5037635;28;20021;-76
2022/01/23 06:02:31;;;;;;;0.82;0.82;;;;;;;23.32;8.73;101156.22;5038838;28;20047;-76
2022/01/23 06:04:56;;;;;;;0.60;0.60;;;;;;;23.32;8.80;101154.34;5046307;28;20041;-76
2022/01/23 06:07:22;;;;;;;0.85;0.65;;;;;;;23.33;8.85;101153.25;5041532;28;20033;-76
2022/01/23 06:09:47;;;;;;;0.70;0.70;;;;;;;23.30;8.63;101152.94;5039474;28;20025;-77
2022/01/23 06:12:13;;;;;;;0.63;0.63;;;;;;;23.33;8.83;101155.16;5039994;28;20036;-77
2022/01/23 06:14:38;;;;;;;0.75;0.75;;;;;;;23.35;8.73;101153.84;5042443;28;20048;-77
2022/01/23 06:17:04;;;;;;;0.60;0.60;;;;;;;23.33;8.90;101161.44;5051282;28;20021;-76
2022/01/23 06:19:32;;;;;;;0.60;0.60;;;;;;;23.33;8.88;101161.44;5050484;28;20048;-75
2022/01/23 06:21:58;;;;;;;0.80;0.80;;;;;;;23.32;8.89;101158.94;5051407;28;20034;-76
2022/01/23 06:24:26;;;;;;;0.77;0.68;;;;;;;23.34;8.89;101157.63;5051242;28;20009;-76
2022/01/23 06:26:53;;;;;;;0.77;0.77;;;;;;;23.32;9.18;101148.03;5051970;28;20053;-77
2022/01/23 06:29:20;;;;;;;0.70;0.70;;;;;;;23.31;9.09;101152.69;5053901;28;20060;-77
2022/01/23 06:31:46;;;;;;;0.60;0.60;;;;;;;23.32;9.16;101148.88;5054757;28;20025;-76
2022/01/23 06:34:12;;;;;;;0.60;0.60;;;;;;;23.32;9.21;101151.63;5053831;28;20032;-77
2022/01/23 06:36:38;;;;;;;0.80;0.80;;;;;;;23.30;9.03;101148.31;5053087;28;20029;-76
2022/01/23 06:39:06;;;;;;;0.70;0.70;;;;;;;23.31;9.11;101149.94;5053981;28;20042;-77
2022/01/23 06:41:31;;;;;;;0.70;0.70;;;;;;;23.32;9.35;101150.75;5051816;28;20030;-76
2022/01/23 06:43:57;;;;;;;0.70;0.70;;;;;;;23.32;9.35;101145.31;5039659;28;20075;-76
2022/01/23 06:46:22;;;;;;;0.60;0.60;;;;;;;23.35;9.39;101142.94;5033658;28;20100;-76
2022/01/23 06:48:48;;;;;;;0.57;0.57;;;;;;;23.33;9.35;101142.34;5033138;28;20045;-76
2022/01/23 06:51:13;;;;;;;0.50;0.50;;;;;;;23.32;9.38;101154.34;5016232;28;20057;-77
2022/01/23 06:53:39;;;;;;;0.50;0.50;;;;;;;23.35;9.49;101151.13;5034342;28;20032;-76
2022/01/23 06:56:04;;;;;;;0.50;0.50;;;;;;;23.32;9.57;101143.44;5033454;28;20026;-75
2022/01/23 06:58:29;;;;;;;0.40;0.40;;;;;;;23.34;9.33;101160.34;5033120;28;20420;-77
2022/01/23 07:00:55;;;;;;;0.60;0.60;;;;;;;23.34;9.76;101154.91;5033498;28;20030;-76
2022/01/23 07:03:20;;;;;;;0.60;0.60;;;;;;;23.36;9.67;101154.66;5033386;28;20025;-77
2022/01/23 07:05:45;;;;;;;0.70;0.50;;;;;;;23.35;9.79;101153.84;5033342;28;20468;-76
2022/01/23 07:08:11;;;;;;;0.50;0.50;;;;;;;23.34;9.64;101152.19;5033529;28;20395;-76
2022/01/23 07:10:36;;;;;;;0.73;0.50;;;;;;;23.31;9.76;101152.69;5033019;28;20486;-77
2022/01/23 07:13:02;;;;;;;0.50;0.50;;;;;;;23.36;9.94;101152.75;5033336;28;20076;-76
2022/01/23 07:15:27;;;;;;;0.60;0.60;;;;;;;23.36;9.94;101155.47;5032943;28;20377;-76
2022/01/23 07:17:52;;;;;;;0.60;0.60;;;;;;;23.31;9.77;101157.31;5033288;28;20033;-76
2022/01/23 07:20:18;;;;;;;0.63;0.63;;;;;;;23.36;9.76;101155.47;5033235;28;20092;-75
2022/01/23 07:22:43;;;;;;;0.63;0.50;;;;;;;23.32;9.95;101159.78;5033279;28;20037;-77
2022/01/23 07:25:09;;;;;;;0.40;0.40;;;;;;;23.36;9.89;101160.94;5033130;28;20426;-76
2022/01/23 07:27:39;;;;;;;0.60;0.60;;;;;;;23.37;9.89;101169.91;5033232;28;20418;-77
2022/01/23 07:30:07;;;;;;;0.40;0.40;;;;;;;23.35;10.08;101175.66;5033105;28;20037;-77
2022/01/23 07:32:32;;;;;;;0.50;0.50;;;;;;;23.37;10.10;101175.38;5034179;28;20032;-76
2022/01/23 07:34:57;;;;;;;0.50;0.50;;;;;;;23.36;10.25;101177.28;5036438;28;20471;-76
2022/01/23 07:37:23;;;;;;;0.43;0.43;;;;;;;23.33;10.02;101183.25;5037027;28;20097;-76
2022/01/23 07:39:48;;;;;;;0.70;0.70;;;;;;;23.37;10.30;101178.94;5036897;28;20030;-76
2022/01/23 07:42:14;;;;;;;0.50;0.50;;;;;;;23.35;10.24;101180.25;5037098;28;20026;-75
2022/01/23 07:44:39;;;;;;;0.60;0.60;;;;;;;23.30;10.51;101167.41;5036801;28;20025;-77
2022/01/23 07:47:06;;;;;;;0.55;0.55;;;;;;;23.36;10.56;101171.84;5036263;28;20076;-76
2022/01/23 07:49:32;;;;;;;0.47;0.47;;;;;;;23.34;10.37;101174.00;5036754;28;20025;-76
2022/01/23 07:51:59;;;;;;;0.50;0.50;;;;;;;23.36;10.47;101184.66;5036433;28;20121;-76
2022/01/23 07:54:24;;;;;;;0.50;0.50;;;;;;;23.34;10.47;101184.91;5036636;28;20025;-76
2022/01/23 07:56:50;;;;;;;0.50;0.50;;;;;;;23.35;10.47;101178.38;5036678;28;20041;-77
2022/01/23 07:59:15;;;;;;;0.57;0.57;;;;;;;23.32;10.58;101181.63;5036995;28;20029;-75
2022/01/23 08:01:41;;;;;;;0.60;0.60;;;;;;;23.34;10.86;101179.44;5036737;28;20033;-76
2022/01/23 08:04:07;;;;;;;0.70;0.70;;;;;;;23.32;10.49;101181.63;5036635;28;20091;-77
2022/01/23 08:06:39;;;;;;;0.70;0.70;;;;;;;23.36;10.89;101181.94;5036917;28;20325;-77
2022/01/23 08:09:04;;;;;;;0.65;0.60;;;;;;;23.35;11.03;101181.09;5037248;28;20022;-77
2022/01/23 08:11:29;;;;;;;0.50;0.50;;;;;;;23.31;11.00;101190.84;5036250;28;20022;-76
2022/01/23 08:13:55;;;;;;;0.57;0.57;;;;;;;23.35;11.24;101192.03;5036112;28;20026;-76
2022/01/23 08:16:20;;;;;;;0.60;0.60;;;;;;;23.34;11.17;101187.63;5035986;28;20035;-76
2022/01/23 08:18:45;;;;;;;0.60;0.60;;;;;;;23.37;11.02;101199.91;5036139;28;20426;-76
2022/01/23 08:21:11;;;;;;;0.50;0.50;;;;;;;23.35;11.34;101202.09;5018327;28;20084;-76
2022/01/23 08:23:38;;;;;;;0.50;0.50;;;;;;;23.34;11.22;101208.63;5035945;28;20035;-76
2022/01/23 08:26:04;;;;;;;0.50;0.50;;;;;;;23.35;11.09;101213.84;5035948;28;20123;-76
2022/01/23 08:28:30;;;;;;;0.70;0.70;;;;;;;23.32;11.29;101214.34;5035524;28;20494;-77
2022/01/23 08:30:55;;;;;;;0.60;0.60;;;;;;;23.33;11.49;101205.06;5035736;28;20029;-77
2022/01/23 08:33:20;;;;;;;0.60;0.60;;;;;;;23.37;11.41;101203.50;5035856;28;20037;-77
2022/01/23 08:35:46;;;;;;;0.57;0.57;;;;;;;23.36;11.33;101199.09;5035762;28;20502;-76
2022/01/23 08:38:13;;;;;;;0.70;0.70;;;;;;;23.34;11.26;101190.34;5035754;28;20107;-77
2022/01/23 08:43:07;;;;;;;0.65;0.65;;;;;;;23.37;11.53;101195.31;5035397;28;20108;-76
2022/01/23 08:45:33;;;;;;;0.50;0.50;;;;;;;23.36;11.42;101193.66;5034624;28;20137;-76
2022/01/23 08:47:59;;;;;;;0.70;0.70;;;;;;;23.38;11.34;101191.50;5035361;28;20050;-75
2022/01/23 08:50:25;;;;;;;0.57;0.57;;;;;;;23.36;11.49;101193.66;5035263;28;20021;-75
2022/01/23 08:52:51;;;;;;;0.38;0.38;;;;;;;23.37;11.67;101197.19;5034964;28;20030;-76
2022/01/23 08:55:16;;;;;;;0.50;0.50;;;;;;;23.37;11.65;101206.22;5036070;28;20083;-77
2022/01/23 08:57:42;;;;;;;0.60;0.60;;;;;;;23.37;11.53;101203.50;5035274;28;20025;-76
2022/01/23 09:00:08;;;;;;;0.52;0.52;;;;;;;23.38;11.69;101196.94;5035267;28;20075;-76
2022/01/23 09:02:33;;;;;;;0.50;0.50;;;;;;;23.33;11.83;101194.16;5035893;28;20095;-76
2022/01/23 09:05:00;;;;;;;0.68;0.68;;;;;;;23.33;11.63;101194.16;5035079;28;20455;-76
2022/01/23 09:07:25;;;;;;;0.70;0.70;;;;;;;23.36;12.07;101199.09;5034952;28;20116;-76
2022/01/23 09:09:51;;;;;;;0.40;0.40;;;;;;;23.35;11.64;101197.47;5034726;28;20126;-76
2022/01/23 09:14:47;;;;;;;0.57;0.57;;;;;;;23.38;12.09;101202.41;5034831;28;20400;-76
2022/01/23 09:17:13;;;;;;;0.50;0.50;;;;;;;23.36;12.13;101201.03;5034920;28;20029;-76
2022/01/23 09:19:39;;;;;;;0.40;0.40;;;;;;;23.37;12.09;101205.38;5034773;28;20025;-77
2022/01/23 09:22:04;;;;;;;0.63;0.63;;;;;;;23.35;12.07;101202.94;5034752;28;20452;-76
2022/01/23 09:24:30;;;;;;;0.50;0.50;;;;;;;23.36;12.49;101203.75;5034783;28;20032;-76
2022/01/23 09:27:02;;;;;;;0.40;0.40;;;;;;;23.35;12.38;101200.19;5034373;28;20017;-76
2022/01/23 09:29:36;;;;;;;0.52;0.52;;;;;;;23.35;12.59;101200.19;5031610;28;20060;-76
2022/01/23 09:32:07;;;;;;;0.65;0.60;;;;;;;23.31;12.50;101196.31;5034706;28;20112;-76
2022/01/23 09:34:32;;;;;;;0.50;0.50;;;;;;;23.38;12.81;101196.94;5034920;28;20071;-76
2022/01/23 09:37:03;;;;;;;0.40;0.40;;;;;;;23.36;12.62;101180.00;5034742;28;20430;-77
2022/01/23 09:39:29;;;;;;;0.50;0.50;;;;;;;23.36;12.56;101188.19;5034419;28;20028;-77
2022/01/23 09:42:28;;;;;;;0.50;0.50;;;;;;;23.44;12.63;101187.75;5034301;28;20087;-76
2022/01/23 09:44:57;;;;;;;0.40;0.40;;;;;;;23.37;12.94;101183.56;4954095;29;20486;-76
2022/01/23 09:47:22;;;;;;;0.38;0.38;;;;;;;23.38;13.00;101182.50;4953878;29;20062;-76
2022/01/23 09:49:49;;;;;;;0.30;0.30;;;;;;;23.35;13.13;101186.56;4953850;29;20035;-76
2022/01/23 09:52:15;;;;;;;0.47;0.47;;;;;;;23.34;12.90;101184.91;4953811;29;20031;-76
2022/01/23 09:54:42;;;;;;;0.40;0.40;;;;;;;23.38;13.08;101179.75;4953840;29;20379;-76
2022/01/23 09:57:08;;;;;;;0.30;0.30;;;;;;;23.36;13.01;101182.75;4953928;28;20501;-76
2022/01/23 09:59:34;;;;;;;0.38;0.38;;;;;;;23.35;12.76;101191.19;4953685;29;20058;-76
2022/01/23 10:02:01;;;;;;;0.40;0.40;;;;;;;23.37;12.95;101189.00;4953984;29;20394;-76
2022/01/23 10:04:27;;;;;;;0.40;0.40;;;;;;;23.34;13.42;101190.34;4953648;29;20406;-76
2022/01/23 10:06:52;;;;;;;0.40;0.40;;;;;;;23.39;13.05;101190.41;4953339;29;20138;-76
2022/01/23 10:09:20;;;;;;;0.40;0.40;;;;;;;23.33;13.14;101191.44;4953733;29;20044;-76
2022/01/23 10:11:46;;;;;;;0.30;0.30;;;;;;;23.37;13.21;101194.47;4953584;29;20035;-75
2022/01/23 10:14:11;;;;;;;0.30;0.30;;;;;;;23.37;13.28;101200.78;4953459;28;20027;-75
2022/01/23 10:16:37;;;;;;;0.40;0.40;;;;;;;23.38;13.52;101191.50;4953508;29;20046;-76
2022/01/23 10:19:03;;;;;;;0.30;0.30;;;;;;;23.36;13.52;101182.75;4953669;29;20038;-76
2022/01/23 10:21:30;;;;;;;0.30;0.30;;;;;;;23.39;13.68;101184.97;4984764;28;20152;-76
2022/01/23 10:23:56;;;;;;;0.30;0.30;;;;;;;23.37;13.47;101183.56;5016036;28;20029;-76
2022/01/23 10:26:47;;;;;;;0.40;0.40;;;;;;;23.42;13.74;101179.00;5033530;28;20365;-76
2022/01/23 10:29:25;;;;;;;0.30;0.30;;;;;;;23.39;13.91;101170.50;5033644;28;20112;-76
2022/01/23 10:32:08;;;;;;;0.30;0.30;;;;;;;23.43;13.93;101168.91;5033666;28;20026;-76
2022/01/23 10:34:57;;;;;;;0.23;0.23;;;;;;;23.41;13.70;101169.16;5033322;28;20036;-76
2022/01/23 10:37:24;;;;;;;0.30;0.30;;;;;;;23.38;13.89;101166.94;5033807;28;20029;-76
2022/01/23 10:39:49;;;;;;;0.30;0.30;;;;;;;23.36;13.82;101155.47;5033185;28;20036;-76
2022/01/23 10:42:38;;;;;;;0.30;0.30;;;;;;;23.37;13.91;101146.22;5033541;28;20025;-76
2022/01/23 10:47:56;;;;;;;0.28;0.28;;;;;;;23.38;13.89;101161.50;5033139;28;20056;-77
2022/01/23 10:50:22;;;;;;;0.30;0.30;;;;;;;23.38;13.91;101163.41;5033496;28;20051;-76
2022/01/23 10:52:49;;;;;;;0.30;0.30;;;;;;;23.34;14.01;101157.63;5033073;28;20030;-76
2022/01/23 10:55:20;;;;;;;0.30;0.30;;;;;;;23.39;14.12;101154.16;5032921;28;20031;-76
2022/01/23 10:57:51;;;;;;;0.30;0.30;;;;;;;23.36;14.02;101152.75;5033533;28;20033;-77
2022/01/23 11:00:25;;;;;;;0.32;0.32;;;;;;;23.36;14.04;101150.00;5033430;28;20384;-76
2022/01/23 11:02:50;;;;;;;0.30;0.30;;;;;;;23.39;14.00;101148.69;5033322;28;20053;-76
2022/01/23 11:05:17;;;;;;;0.30;0.30;;;;;;;23.37;14.38;101143.50;5033113;28;20029;-76
2022/01/23 11:07:44;;;;;;;0.20;0.20;;;;;;;23.41;14.03;101149.25;5034295;28;20476;-75
2022/01/23 11:10:12;;;;;;;0.30;0.30;;;;;;;23.36;14.52;101139.09;5037263;28;20029;-75
2022/01/23 11:18:09;;;;;;;0.28;0.28;;;;;;;23.39;14.57;101151.41;5037146;28;20029;-76
2022/01/23 11:20:48;;;;;;;0.20;0.20;;;;;;;23.37;14.35;101150.81;5037168;28;20021;-76
2022/01/23 11:23:18;;;;;;;0.20;0.20;;;;;;;23.38;14.54;101156.03;5037110;28;20022;-76
2022/01/23 11:25:52;;;;;;;0.20;0.20;;;;;;;23.39;14.65;101159.59;5036963;28;20052;-76
2022/01/23 11:28:18;;;;;;;;;;;;;;;23.68;14.08;101162.94;5037395;28;20021;-75
2022/01/23 11:30:45;;;;;;;0.20;0.20;;;;;;;23.49;14.58;101164.34;5036638;28;20355;-76
2022/01/23 11:33:17;;;;;;;0.20;0.20;;;;;;;23.41;14.55;101171.06;5036901;28;20035;-77
2022/01/23 11:35:43;;;;;;;0.30;0.30;;;;;;;23.43;14.84;101183.38;5036794;28;20072;-77
2022/01/23 11:38:17;;;;;;;0.30;0.30;;;;;;;23.40;14.71;101183.91;5036752;28;20415;-76
2022/01/23 11:54:03;;;;;;;0.30;0.30;;;;;;;23.37;14.82;101186.28;5036620;28;20501;-76
2022/01/23 11:56:30;;;;;;;0.20;0.20;;;;;;;23.39;14.97;101189.59;5036148;28;20025;-76
2022/01/23 11:59:22;;;;;;;0.20;0.20;;;;;;;23.44;15.00;101184.22;5036764;28;20026;-75
2022/01/23 12:02:09;;;;;;;0.20;0.20;;;;;;;23.40;14.93;101194.81;5036314;28;20042;-76
2022/01/23 12:04:34;;;;;;;0.20;0.20;;;;;;;23.40;15.13;101185.78;5035761;28;20025;-76
2022/01/23 12:07:13;;;;;;;0.20;0.20;;;;;;;23.38;15.04;101182.50;5036580;28;20037;-75
2022/01/23 12:09:43;;;;;;;0.30;0.30;;;;;;;23.38;15.27;101174.31;5036182;28;20122;-77
2022/01/23 12:18:18;;;;;;;0.30;0.30;;;;;;;23.43;15.44;101177.91;4974947;28;20034;-76
2022/01/23 12:20:44;;;;;;;0.17;0.17;;;;;;;23.36;15.17;101171.84;4974119;28;20371;-75
2022/01/23 12:23:10;;;;;;;0.20;0.20;;;;;;;23.38;15.66;101177.84;4974896;28;20031;-76
2022/01/23 12:25:40;;;;;;;0.20;0.20;;;;;;;23.38;15.61;101187.94;4975435;28;20042;-76
2022/01/23 12:28:32;;;;;;;0.20;0.20;;;;;;;23.43;15.37;101196.19;4974821;28;20023;-75
2022/01/23 12:30:59;;;;;;;0.20;0.20;;;;;;;23.39;15.59;101192.34;4974610;28;20074;-75
2022/01/23 12:33:29;;;;;;;0.20;0.20;;;;;;;23.38;15.45;101186.03;4958599;28;20514;-76
2022/01/23 12:35:58;;;;;;;0.20;0.20;;;;;;;23.34;15.72;101175.91;4975002;28;20431;-76
2022/01/23 12:38:35;;;;;;;0.30;0.30;;;;;;;23.40;15.47;101183.91;4974550;28;20067;-75
2022/01/23 12:41:22;;;;;;;0.30;0.30;;;;;;;23.42;15.38;101178.16;4974653;28;20141;-77
2022/01/23 12:43:47;;;;;;;0.30;0.30;;;;;;;23.40;15.74;101178.44;4969285;28;20061;-76
2022/01/23 12:46:24;;;;;;;0.20;0.20;;;;;;;23.38;15.65;101174.31;4974475;28;20047;-76
2022/01/23 12:48:49;;;;;;;0.20;0.20;;;;;;;23.37;15.57;101173.50;4974193;28;20054;-76
2022/01/23 12:51:18;;;;;;;0.20;0.20;;;;;;;23.41;15.59;101179.25;4990194;28;20427;-76
2022/01/23 12:53:43;;;;;;;0.20;0.20;;;;;;;23.38;15.95;101179.75;5035560;28;20096;-76
2022/01/23 12:56:10;;;;;;;0.20;0.20;;;;;;;23.38;15.51;101182.50;5035926;28;20357;-76
2022/01/23 12:58:36;;;;;;;0.20;0.20;;;;;;;23.36;15.74;101182.75;5035845;28;20105;-76
2022/01/23 13:01:16;;;;;;;0.20;0.20;;;;;;;23.34;15.88;101163.09;5035980;28;20104;-76
2022/01/23 13:03:43;;;;;;;0.20;0.20;;;;;;;23.38;15.93;101163.41;5035644;28;20048;-77
2022/01/23 13:06:11;;;;;;;0.20;0.20;;;;;;;23.38;16.02;101150.56;5036041;28;20033;-76
2022/01/23 13:08:46;;;;;;;0.30;0.30;;;;;;;23.37;15.74;101151.69;5034850;28;20107;-75
2022/01/23 13:11:45;;;;;;;0.20;0.20;;;;;;;23.40;15.78;101143.00;5035208;28;20037;-75
2022/01/23 13:13:59;;;;;;;0.30;0.30;;;;;;;23.40;15.92;101134.81;5034466;28;20033;-76
2022/01/23 13:17:09;;;;;;;0.20;0.20;;;;;;;23.34;15.87;101135.00;5035455;28;20107;-75
2022/01/23 13:27:48;;;;;;;0.20;0.20;;;;;;;23.47;16.09;101167.31;5034622;28;19962;-76
2022/01/23 13:30:21;;;;;;;0.20;0.20;;;;;;;23.41;15.94;101169.16;5032763;28;20030;-76
2022/01/23 13:32:49;;;;;;;0.20;0.20;;;;;;;23.46;16.16;101178.47;5034547;28;20061;-76
2022/01/23 13:35:16;;;;;;;0.30;0.30;;;;;;;23.39;16.01;101170.50;5034613;28;20025;-76
2022/01/23 13:37:47;;;;;;;0.20;0.20;;;;;;;23.40;16.30;101194.81;5034506;28;20026;-76
2022/01/23 13:40:23;;;;;;;0.28;0.28;;;;;;;23.40;16.23;101189.34;5034512;28;20026;-75
2022/01/23 13:59:31;;;;;;;0.30;0.30;;;;;;;23.41;16.36;101191.00;4992705;28;20112;-76
2022/01/23 14:04:34;;;;;;;0.20;0.20;;;;;;;23.37;16.24;101173.50;4992362;28;20362;-75
2022/01/23 14:06:59;;;;;;;0.20;0.20;;;;;;;23.39;16.46;101176.78;4992276;28;20038;-75
2022/01/23 14:09:26;;;;;;;0.22;0.22;;;;;;;23.37;16.32;101184.41;4944250;28;20504;-76
2022/01/23 14:11:51;;;;;;;0.20;0.20;;;;;;;23.40;16.28;101194.81;4992332;28;20045;-76
2022/01/23 14:14:25;;;;;;;0.20;0.20;;;;;;;23.41;16.59;101199.16;4992235;28;20413;-76
2022/01/23 14:16:52;;;;;;;0.20;0.20;;;;;;;23.42;16.24;101208.16;4992076;28;20488;-76
2022/01/23 14:19:28;;;;;;;0.20;0.20;;;;;;;23.41;16.59;101199.16;4992225;28;20030;-76
2022/01/23 14:21:59;;;;;;;0.30;0.30;;;;;;;23.41;16.58;101190.16;4992128;28;20053;-76
2022/01/23 14:24:33;;;;;;;0.20;0.20;;;;;;;23.41;16.61;101192.91;4991975;28;20039;-75
2022/01/23 14:27:06;;;;;;;;;;;;;;;23.67;16.41;101180.38;4992415;28;20045;-74
2022/01/23 14:29:34;;;;;;;0.20;0.20;;;;;;;23.47;16.32;101194.59;4991841;28;19921;-76
2022/01/23 14:32:05;;;;;;;0.30;0.30;;;;;;;23.42;16.36;101181.75;5010406;28;20042;-75
2022/01/23 14:34:30;;;;;;;0.40;0.40;;;;;;;23.41;16.50;101185.53;5006759;28;20046;-75
2022/01/23 14:36:56;;;;;;;0.20;0.20;;;;;;;23.42;16.58;101186.34;5013521;28;20472;-74
2022/01/23 14:39:22;;;;;;;0.20;0.20;;;;;;;23.39;16.68;101192.34;5013864;28;20026;-77
2022/01/23 14:41:48;;;;;;;0.30;0.30;;;;;;;23.38;16.81;101191.50;5013073;28;20029;-76
2022/01/23 14:44:18;;;;;;;0.20;0.20;;;;;;;23.39;16.70;101187.69;5013450;28;20029;-76
2022/01/23 14:46:47;;;;;;;0.22;0.22;;;;;;;23.38;16.80;101185.22;5013371;28;20511;-76
2022/01/23 14:49:21;;;;;;;0.30;0.30;;;;;;;23.36;16.85;101193.66;5013851;28;20091;-76
2022/01/23 14:51:46;;;;;;;;;;;;;;;23.68;16.53;101203.88;4997475;28;20053;-75